sensor_id;sensor_type;location;lat;lon;timestamp;P1;durP1;ratioP1;P2;durP2;ratioP2
4933;SDS011;2482;49.154;8.254;2022-08-18T00:01:08;5.60;;;4.40;;
4933;SDS011;2482;49.154;8.254;2022-08-18T00:03:40;6.27;;;4.87;;
4933;SDS011;2482;49.154;8.254;2022-08-18T00:06:25;5.90;;;4.50;;
4933;SDS011;2482;49.154;8.254;2022-08-18T00:08:55;5.70;;;5.10;;
4933;SDS011;2482;49.154;8.254;2022-08-18T00:11:32;5.77;;;5.20;;
4933;SDS011;2482;49.154;8.254;2022-08-18T00:14:09;5.10;;;4.60;;
4933;SDS011;2482;49.154;8.254;2022-08-18T00:16:49;5.63;;;4.67;;
4933;SDS011;2482;49.154;8.254;2022-08-18T00:19:19;5.57;;;5.07;;
4933;SDS011;2482;49.154;8.254;2022-08-18T00:22:08;7.83;;;4.93;;
4933;SDS011;2482;49.154;8.254;2022-08-18T00:24:41;18.33;;;5.40;;
4933;SDS011;2482;49.154;8.254;2022-08-18T00:27:15;5.37;;;4.87;;
4933;SDS011;2482;49.154;8.254;2022-08-18T00:29:47;6.13;;;5.07;;
4933;SDS011;2482;49.154;8.254;2022-08-18T00:32:34;5.90;;;5.37;;
4933;SDS011;2482;49.154;8.254;2022-08-18T00:37:40;10.23;;;5.57;;
4933;SDS011;2482;49.154;8.254;2022-08-18T00:40:08;6.47;;;5.87;;
4933;SDS011;2482;49.154;8.254;2022-08-18T00:42:44;7.03;;;6.00;;
4933;SDS011;2482;49.154;8.254;2022-08-18T00:45:17;7.23;;;5.33;;
4933;SDS011;2482;49.154;8.254;2022-08-18T00:47:50;5.87;;;5.30;;
4933;SDS011;2482;49.154;8.254;2022-08-18T00:50:23;5.43;;;4.93;;
4933;SDS011;2482;49.154;8.254;2022-08-18T00:53:23;6.47;;;5.73;;
4933;SDS011;2482;49.154;8.254;2022-08-18T00:55:57;6.13;;;5.53;;
4933;SDS011;2482;49.154;8.254;2022-08-18T00:58:51;6.03;;;5.53;;
4933;SDS011;2482;49.154;8.254;2022-08-18T01:01:25;6.50;;;5.20;;
4933;SDS011;2482;49.154;8.254;2022-08-18T01:03:59;7.93;;;4.97;;
4933;SDS011;2482;49.154;8.254;2022-08-18T01:06:40;5.70;;;4.93;;
4933;SDS011;2482;49.154;8.254;2022-08-18T01:09:13;6.40;;;5.50;;
4933;SDS011;2482;49.154;8.254;2022-08-18T01:11:42;6.57;;;5.20;;
4933;SDS011;2482;49.154;8.254;2022-08-18T01:14:10;6.27;;;5.67;;
4933;SDS011;2482;49.154;8.254;2022-08-18T01:16:41;5.97;;;5.10;;
4933;SDS011;2482;49.154;8.254;2022-08-18T01:19:29;5.77;;;5.07;;
4933;SDS011;2482;49.154;8.254;2022-08-18T01:24:56;8.70;;;5.20;;
4933;SDS011;2482;49.154;8.254;2022-08-18T01:27:44;5.87;;;5.30;;
4933;SDS011;2482;49.154;8.254;2022-08-18T01:30:14;5.77;;;5.23;;
4933;SDS011;2482;49.154;8.254;2022-08-18T01:32:43;8.93;;;5.90;;
4933;SDS011;2482;49.154;8.254;2022-08-18T01:35:14;7.13;;;6.43;;
4933;SDS011;2482;49.154;8.254;2022-08-18T01:37:43;7.67;;;6.27;;
4933;SDS011;2482;49.154;8.254;2022-08-18T01:40:12;6.70;;;6.03;;
4933;SDS011;2482;49.154;8.254;2022-08-18T01:43:02;6.53;;;5.93;;
4933;SDS011;2482;49.154;8.254;2022-08-18T01:45:30;7.37;;;6.10;;
4933;SDS011;2482;49.154;8.254;2022-08-18T01:47:58;6.93;;;6.23;;
4933;SDS011;2482;49.154;8.254;2022-08-18T01:50:26;6.97;;;6.27;;
4933;SDS011;2482;49.154;8.254;2022-08-18T01:52:54;8.43;;;7.10;;
4933;SDS011;2482;49.154;8.254;2022-08-18T01:55:21;7.53;;;6.53;;
4933;SDS011;2482;49.154;8.254;2022-08-18T01:57:50;8.00;;;7.20;;
4933;SDS011;2482;49.154;8.254;2022-08-18T02:00:17;9.83;;;7.00;;
4933;SDS011;2482;49.154;8.254;2022-08-18T02:02:45;7.73;;;6.93;;
4933;SDS011;2482;49.154;8.254;2022-08-18T02:05:35;8.30;;;6.60;;
4933;SDS011;2482;49.154;8.254;2022-08-18T02:08:07;7.67;;;6.97;;
4933;SDS011;2482;49.154;8.254;2022-08-18T02:10:38;8.63;;;7.20;;
4933;SDS011;2482;49.154;8.254;2022-08-18T02:13:05;8.60;;;6.90;;
4933;SDS011;2482;49.154;8.254;2022-08-18T02:15:32;7.10;;;6.40;;
4933;SDS011;2482;49.154;8.254;2022-08-18T02:17:59;8.10;;;7.30;;
4933;SDS011;2482;49.154;8.254;2022-08-18T02:20:27;7.70;;;7.00;;
4933;SDS011;2482;49.154;8.254;2022-08-18T02:22:54;10.67;;;7.47;;
4933;SDS011;2482;49.154;8.254;2022-08-18T02:25:23;7.60;;;6.70;;
4933;SDS011;2482;49.154;8.254;2022-08-18T02:27:50;7.87;;;7.07;;
4933;SDS011;2482;49.154;8.254;2022-08-18T02:30:18;8.43;;;7.47;;
4933;SDS011;2482;49.154;8.254;2022-08-18T02:32:45;7.83;;;6.80;;
4933;SDS011;2482;49.154;8.254;2022-08-18T02:35:13;8.23;;;7.43;;
4933;SDS011;2482;49.154;8.254;2022-08-18T02:37:40;8.60;;;6.90;;
4933;SDS011;2482;49.154;8.254;2022-08-18T02:40:08;8.20;;;7.30;;
4933;SDS011;2482;49.154;8.254;2022-08-18T02:42:40;8.27;;;7.20;;
4933;SDS011;2482;49.154;8.254;2022-08-18T02:45:08;7.63;;;6.13;;
4933;SDS011;2482;49.154;8.254;2022-08-18T02:47:37;9.67;;;7.43;;
4933;SDS011;2482;49.154;8.254;2022-08-18T02:50:05;7.43;;;6.43;;
4933;SDS011;2482;49.154;8.254;2022-08-18T02:52:36;7.80;;;6.50;;
4933;SDS011;2482;49.154;8.254;2022-08-18T02:55:05;14.23;;;7.40;;
4933;SDS011;2482;49.154;8.254;2022-08-18T02:57:33;6.60;;;6.00;;
4933;SDS011;2482;49.154;8.254;2022-08-18T03:00:00;7.30;;;6.40;;
4933;SDS011;2482;49.154;8.254;2022-08-18T03:02:28;8.30;;;6.30;;
4933;SDS011;2482;49.154;8.254;2022-08-18T03:04:54;7.87;;;6.97;;
4933;SDS011;2482;49.154;8.254;2022-08-18T03:07:22;6.80;;;6.07;;
4933;SDS011;2482;49.154;8.254;2022-08-18T03:09:50;9.87;;;6.80;;
4933;SDS011;2482;49.154;8.254;2022-08-18T03:12:17;6.57;;;6.00;;
4933;SDS011;2482;49.154;8.254;2022-08-18T03:14:44;6.93;;;6.20;;
4933;SDS011;2482;49.154;8.254;2022-08-18T03:17:11;7.30;;;5.87;;
4933;SDS011;2482;49.154;8.254;2022-08-18T03:19:40;6.50;;;5.90;;
4933;SDS011;2482;49.154;8.254;2022-08-18T03:22:12;6.80;;;5.93;;
4933;SDS011;2482;49.154;8.254;2022-08-18T03:24:53;8.50;;;7.00;;
4933;SDS011;2482;49.154;8.254;2022-08-18T03:27:22;8.80;;;6.17;;
4933;SDS011;2482;49.154;8.254;2022-08-18T03:29:49;7.10;;;6.40;;
4933;SDS011;2482;49.154;8.254;2022-08-18T03:32:16;8.00;;;6.47;;
4933;SDS011;2482;49.154;8.254;2022-08-18T03:34:44;6.83;;;6.13;;
4933;SDS011;2482;49.154;8.254;2022-08-18T03:37:11;6.50;;;5.90;;
4933;SDS011;2482;49.154;8.254;2022-08-18T03:39:41;7.20;;;6.50;;
4933;SDS011;2482;49.154;8.254;2022-08-18T03:42:08;6.80;;;6.10;;
4933;SDS011;2482;49.154;8.254;2022-08-18T03:44:35;7.10;;;6.40;;
4933;SDS011;2482;49.154;8.254;2022-08-18T03:47:04;7.73;;;6.10;;
4933;SDS011;2482;49.154;8.254;2022-08-18T03:49:35;8.33;;;6.50;;
4933;SDS011;2482;49.154;8.254;2022-08-18T03:52:06;6.87;;;6.17;;
4933;SDS011;2482;49.154;8.254;2022-08-18T03:54:34;7.90;;;6.80;;
4933;SDS011;2482;49.154;8.254;2022-08-18T03:57:06;8.70;;;6.40;;
4933;SDS011;2482;49.154;8.254;2022-08-18T03:59:34;7.37;;;6.77;;
4933;SDS011;2482;49.154;8.254;2022-08-18T04:02:02;7.70;;;6.50;;
4933;SDS011;2482;49.154;8.254;2022-08-18T04:04:30;6.40;;;5.90;;
4933;SDS011;2482;49.154;8.254;2022-08-18T04:07:00;7.33;;;6.33;;
4933;SDS011;2482;49.154;8.254;2022-08-18T04:09:39;7.73;;;7.03;;
4933;SDS011;2482;49.154;8.254;2022-08-18T04:12:09;8.90;;;7.40;;
4933;SDS011;2482;49.154;8.254;2022-08-18T04:14:43;7.30;;;6.60;;
4933;SDS011;2482;49.154;8.254;2022-08-18T04:17:15;9.33;;;7.67;;
4933;SDS011;2482;49.154;8.254;2022-08-18T04:19:51;8.10;;;7.00;;
4933;SDS011;2482;49.154;8.254;2022-08-18T04:22:19;8.00;;;7.20;;
4933;SDS011;2482;49.154;8.254;2022-08-18T04:24:48;7.37;;;6.67;;
4933;SDS011;2482;49.154;8.254;2022-08-18T04:27:16;10.17;;;6.87;;
4933;SDS011;2482;49.154;8.254;2022-08-18T04:29:44;7.43;;;6.43;;
4933;SDS011;2482;49.154;8.254;2022-08-18T04:32:11;7.37;;;6.67;;
4933;SDS011;2482;49.154;8.254;2022-08-18T04:34:38;7.87;;;7.10;;
4933;SDS011;2482;49.154;8.254;2022-08-18T04:37:06;7.83;;;7.07;;
4933;SDS011;2482;49.154;8.254;2022-08-18T04:39:34;8.40;;;7.27;;
4933;SDS011;2482;49.154;8.254;2022-08-18T04:42:02;9.33;;;7.37;;
4933;SDS011;2482;49.154;8.254;2022-08-18T04:44:31;7.47;;;6.77;;
4933;SDS011;2482;49.154;8.254;2022-08-18T04:46:59;7.63;;;6.80;;
4933;SDS011;2482;49.154;8.254;2022-08-18T04:49:27;7.33;;;6.63;;
4933;SDS011;2482;49.154;8.254;2022-08-18T04:51:55;8.90;;;7.57;;
4933;SDS011;2482;49.154;8.254;2022-08-18T04:55:02;8.00;;;6.93;;
4933;SDS011;2482;49.154;8.254;2022-08-18T04:57:30;12.90;;;8.60;;
4933;SDS011;2482;49.154;8.254;2022-08-18T05:00:00;12.03;;;7.40;;
4933;SDS011;2482;49.154;8.254;2022-08-18T05:02:30;12.67;;;7.57;;
4933;SDS011;2482;49.154;8.254;2022-08-18T05:04:58;11.13;;;7.97;;
4933;SDS011;2482;49.154;8.254;2022-08-18T05:07:28;9.27;;;7.80;;
4933;SDS011;2482;49.154;8.254;2022-08-18T05:09:55;9.33;;;7.63;;
4933;SDS011;2482;49.154;8.254;2022-08-18T05:12:23;9.37;;;7.67;;
4933;SDS011;2482;49.154;8.254;2022-08-18T05:14:51;12.40;;;8.17;;
4933;SDS011;2482;49.154;8.254;2022-08-18T05:17:19;10.50;;;9.23;;
4933;SDS011;2482;49.154;8.254;2022-08-18T05:19:46;9.60;;;8.27;;
4933;SDS011;2482;49.154;8.254;2022-08-18T05:22:15;10.53;;;9.40;;
4933;SDS011;2482;49.154;8.254;2022-08-18T05:24:54;12.90;;;9.53;;
4933;SDS011;2482;49.154;8.254;2022-08-18T05:27:21;10.80;;;9.70;;
4933;SDS011;2482;49.154;8.254;2022-08-18T05:29:48;10.83;;;9.23;;
4933;SDS011;2482;49.154;8.254;2022-08-18T05:32:17;12.40;;;9.63;;
4933;SDS011;2482;49.154;8.254;2022-08-18T05:35:09;11.23;;;10.03;;
4933;SDS011;2482;49.154;8.254;2022-08-18T05:40:39;10.27;;;9.17;;
4933;SDS011;2482;49.154;8.254;2022-08-18T05:43:07;10.90;;;9.80;;
4933;SDS011;2482;49.154;8.254;2022-08-18T05:45:35;11.90;;;9.17;;
4933;SDS011;2482;49.154;8.254;2022-08-18T05:48:04;10.17;;;9.17;;
4933;SDS011;2482;49.154;8.254;2022-08-18T05:50:32;15.40;;;10.10;;
4933;SDS011;2482;49.154;8.254;2022-08-18T05:53:05;11.10;;;9.97;;
4933;SDS011;2482;49.154;8.254;2022-08-18T05:56:02;12.20;;;10.37;;
4933;SDS011;2482;49.154;8.254;2022-08-18T05:58:50;15.07;;;10.90;;
4933;SDS011;2482;49.154;8.254;2022-08-18T06:01:21;12.63;;;11.33;;
4933;SDS011;2482;49.154;8.254;2022-08-18T06:04:04;14.60;;;10.50;;
4933;SDS011;2482;49.154;8.254;2022-08-18T06:07:01;12.33;;;10.90;;
4933;SDS011;2482;49.154;8.254;2022-08-18T06:09:41;11.50;;;10.07;;
4933;SDS011;2482;49.154;8.254;2022-08-18T06:33:47;13.23;;;11.60;;
4933;SDS011;2482;49.154;8.254;2022-08-18T06:41:59;11.83;;;10.50;;
4933;SDS011;2482;49.154;8.254;2022-08-18T06:44:32;13.60;;;11.60;;
4933;SDS011;2482;49.154;8.254;2022-08-18T06:47:13;14.77;;;11.40;;
4933;SDS011;2482;49.154;8.254;2022-08-18T06:52:36;13.53;;;12.13;;
4933;SDS011;2482;49.154;8.254;2022-08-18T06:55:07;16.33;;;11.97;;
4933;SDS011;2482;49.154;8.254;2022-08-18T06:57:51;13.70;;;12.03;;
4933;SDS011;2482;49.154;8.254;2022-08-18T07:00:23;12.47;;;11.23;;
4933;SDS011;2482;49.154;8.254;2022-08-18T07:05:37;15.03;;;11.00;;
4933;SDS011;2482;49.154;8.254;2022-08-18T07:08:37;14.57;;;10.83;;
4933;SDS011;2482;49.154;8.254;2022-08-18T07:13:46;12.47;;;11.27;;
4933;SDS011;2482;49.154;8.254;2022-08-18T07:16:38;13.47;;;11.70;;
4933;SDS011;2482;49.154;8.254;2022-08-18T07:19:26;14.43;;;11.90;;
4933;SDS011;2482;49.154;8.254;2022-08-18T07:22:03;12.73;;;11.47;;
4933;SDS011;2482;49.154;8.254;2022-08-18T07:24:42;13.50;;;11.50;;
4933;SDS011;2482;49.154;8.254;2022-08-18T07:27:16;13.83;;;10.87;;
4933;SDS011;2482;49.154;8.254;2022-08-18T07:30:00;14.73;;;11.40;;
4933;SDS011;2482;49.154;8.254;2022-08-18T07:32:49;11.80;;;10.60;;
4933;SDS011;2482;49.154;8.254;2022-08-18T07:35:44;15.50;;;11.70;;
4933;SDS011;2482;49.154;8.254;2022-08-18T07:38:18;16.57;;;10.60;;
4933;SDS011;2482;49.154;8.254;2022-08-18T07:41:19;11.60;;;10.40;;
4933;SDS011;2482;49.154;8.254;2022-08-18T07:49:32;13.57;;;10.83;;
4933;SDS011;2482;49.154;8.254;2022-08-18T07:52:12;12.23;;;10.90;;
4933;SDS011;2482;49.154;8.254;2022-08-18T07:55:27;15.67;;;10.50;;
4933;SDS011;2482;49.154;8.254;2022-08-18T07:58:13;19.00;;;10.23;;
4933;SDS011;2482;49.154;8.254;2022-08-18T08:06:41;11.57;;;10.47;;
4933;SDS011;2482;49.154;8.254;2022-08-18T08:12:47;12.97;;;10.00;;
4933;SDS011;2482;49.154;8.254;2022-08-18T08:21:22;10.63;;;9.53;;
4933;SDS011;2482;49.154;8.254;2022-08-18T08:24:06;12.17;;;10.63;;
4933;SDS011;2482;49.154;8.254;2022-08-18T08:26:56;11.90;;;10.30;;
4933;SDS011;2482;49.154;8.254;2022-08-18T08:30:22;11.13;;;9.70;;
4933;SDS011;2482;49.154;8.254;2022-08-18T08:32:48;10.60;;;9.50;;
4933;SDS011;2482;49.154;8.254;2022-08-18T08:35:34;10.13;;;8.93;;
4933;SDS011;2482;49.154;8.254;2022-08-18T08:38:26;10.40;;;8.83;;
4933;SDS011;2482;49.154;8.254;2022-08-18T08:41:11;14.27;;;10.10;;
4933;SDS011;2482;49.154;8.254;2022-08-18T08:43:52;11.70;;;10.60;;
4933;SDS011;2482;49.154;8.254;2022-08-18T08:54:47;13.33;;;11.80;;
4933;SDS011;2482;49.154;8.254;2022-08-18T08:57:20;13.50;;;12.10;;
4933;SDS011;2482;49.154;8.254;2022-08-18T08:59:52;11.77;;;10.67;;
4933;SDS011;2482;49.154;8.254;2022-08-18T09:02:25;12.00;;;10.40;;
4933;SDS011;2482;49.154;8.254;2022-08-18T09:05:37;12.63;;;11.30;;
4933;SDS011;2482;49.154;8.254;2022-08-18T09:23:40;13.10;;;11.80;;
4933;SDS011;2482;49.154;8.254;2022-08-18T09:29:21;17.87;;;12.40;;
4933;SDS011;2482;49.154;8.254;2022-08-18T09:40:44;16.00;;;14.40;;
4933;SDS011;2482;49.154;8.254;2022-08-18T09:44:07;15.37;;;13.80;;
4933;SDS011;2482;49.154;8.254;2022-08-18T09:46:52;17.47;;;14.80;;
4933;SDS011;2482;49.154;8.254;2022-08-18T09:51:56;17.40;;;15.13;;
4933;SDS011;2482;49.154;8.254;2022-08-18T09:54:31;19.00;;;17.00;;
4933;SDS011;2482;49.154;8.254;2022-08-18T10:02:07;17.40;;;15.53;;
4933;SDS011;2482;49.154;8.254;2022-08-18T10:07:41;21.13;;;18.50;;
4933;SDS011;2482;49.154;8.254;2022-08-18T10:10:43;20.30;;;18.23;;
4933;SDS011;2482;49.154;8.254;2022-08-18T10:16:57;21.13;;;18.90;;
4933;SDS011;2482;49.154;8.254;2022-08-18T10:22:52;23.20;;;20.87;;
4933;SDS011;2482;49.154;8.254;2022-08-18T10:25:30;24.13;;;21.30;;
4933;SDS011;2482;49.154;8.254;2022-08-18T10:31:22;29.33;;;24.27;;
4933;SDS011;2482;49.154;8.254;2022-08-18T10:39:23;26.07;;;22.60;;
4933;SDS011;2482;49.154;8.254;2022-08-18T10:42:24;25.43;;;22.77;;
4933;SDS011;2482;49.154;8.254;2022-08-18T10:45:05;25.00;;;22.30;;
4933;SDS011;2482;49.154;8.254;2022-08-18T10:48:36;21.40;;;19.20;;
4933;SDS011;2482;49.154;8.254;2022-08-18T10:53:54;20.63;;;18.30;;
4933;SDS011;2482;49.154;8.254;2022-08-18T10:56:51;22.37;;;20.03;;
4933;SDS011;2482;49.154;8.254;2022-08-18T10:59:27;20.23;;;18.03;;
4933;SDS011;2482;49.154;8.254;2022-08-18T11:05:15;24.30;;;20.30;;
4933;SDS011;2482;49.154;8.254;2022-08-18T11:07:51;19.27;;;17.33;;
4933;SDS011;2482;49.154;8.254;2022-08-18T11:10:36;19.23;;;17.17;;
4933;SDS011;2482;49.154;8.254;2022-08-18T11:19:15;23.27;;;20.33;;
4933;SDS011;2482;49.154;8.254;2022-08-18T11:21:48;21.60;;;19.40;;
4933;SDS011;2482;49.154;8.254;2022-08-18T11:24:28;22.63;;;20.23;;
4933;SDS011;2482;49.154;8.254;2022-08-18T11:27:04;25.47;;;20.90;;
4933;SDS011;2482;49.154;8.254;2022-08-18T11:29:50;21.30;;;19.10;;
4933;SDS011;2482;49.154;8.254;2022-08-18T11:32:30;21.07;;;18.87;;
4933;SDS011;2482;49.154;8.254;2022-08-18T11:35:06;20.30;;;18.20;;
4933;SDS011;2482;49.154;8.254;2022-08-18T11:37:48;21.73;;;19.63;;
4933;SDS011;2482;49.154;8.254;2022-08-18T11:40:24;18.70;;;16.73;;
4933;SDS011;2482;49.154;8.254;2022-08-18T11:43:25;20.23;;;17.90;;
4933;SDS011;2482;49.154;8.254;2022-08-18T11:46:21;19.53;;;17.50;;
4933;SDS011;2482;49.154;8.254;2022-08-18T11:48:58;21.00;;;18.10;;
4933;SDS011;2482;49.154;8.254;2022-08-18T11:51:31;18.43;;;16.50;;
4933;SDS011;2482;49.154;8.254;2022-08-18T11:56:38;17.63;;;15.90;;
4933;SDS011;2482;49.154;8.254;2022-08-18T11:59:07;17.37;;;15.60;;
4933;SDS011;2482;49.154;8.254;2022-08-18T12:04:49;18.80;;;16.73;;
4933;SDS011;2482;49.154;8.254;2022-08-18T12:07:39;17.93;;;16.03;;
4933;SDS011;2482;49.154;8.254;2022-08-18T12:10:25;18.07;;;16.17;;
4933;SDS011;2482;49.154;8.254;2022-08-18T12:12:54;19.83;;;16.60;;
4933;SDS011;2482;49.154;8.254;2022-08-18T12:15:30;17.07;;;15.37;;
4933;SDS011;2482;49.154;8.254;2022-08-18T12:18:13;17.40;;;15.53;;
4933;SDS011;2482;49.154;8.254;2022-08-18T12:21:03;16.60;;;13.20;;
4933;SDS011;2482;49.154;8.254;2022-08-18T12:23:32;17.80;;;13.83;;
4933;SDS011;2482;49.154;8.254;2022-08-18T12:26:17;17.10;;;15.40;;
4933;SDS011;2482;49.154;8.254;2022-08-18T12:29:05;16.97;;;15.27;;
4933;SDS011;2482;49.154;8.254;2022-08-18T12:31:36;16.63;;;14.93;;
4933;SDS011;2482;49.154;8.254;2022-08-18T12:34:13;21.17;;;17.03;;
4933;SDS011;2482;49.154;8.254;2022-08-18T12:36:50;19.57;;;17.53;;
4933;SDS011;2482;49.154;8.254;2022-08-18T12:39:21;19.30;;;17.40;;
4933;SDS011;2482;49.154;8.254;2022-08-18T12:41:49;22.17;;;18.30;;
4933;SDS011;2482;49.154;8.254;2022-08-18T12:44:17;19.27;;;16.97;;
4933;SDS011;2482;49.154;8.254;2022-08-18T12:46:45;20.00;;;17.97;;
4933;SDS011;2482;49.154;8.254;2022-08-18T12:49:23;21.83;;;16.80;;
4933;SDS011;2482;49.154;8.254;2022-08-18T12:51:52;19.60;;;14.77;;
4933;SDS011;2482;49.154;8.254;2022-08-18T12:54:23;19.47;;;17.00;;
4933;SDS011;2482;49.154;8.254;2022-08-18T12:56:51;19.10;;;16.30;;
4933;SDS011;2482;49.154;8.254;2022-08-18T12:59:21;20.00;;;17.63;;
4933;SDS011;2482;49.154;8.254;2022-08-18T13:01:49;20.80;;;15.33;;
4933;SDS011;2482;49.154;8.254;2022-08-18T13:04:37;15.97;;;14.10;;
4933;SDS011;2482;49.154;8.254;2022-08-18T13:07:05;18.23;;;14.97;;
4933;SDS011;2482;49.154;8.254;2022-08-18T13:09:34;15.50;;;14.00;;
4933;SDS011;2482;49.154;8.254;2022-08-18T13:12:19;13.77;;;11.40;;
4933;SDS011;2482;49.154;8.254;2022-08-18T13:14:49;15.50;;;14.00;;
4933;SDS011;2482;49.154;8.254;2022-08-18T13:17:20;11.80;;;10.60;;
4933;SDS011;2482;49.154;8.254;2022-08-18T13:20:09;12.90;;;10.20;;
4933;SDS011;2482;49.154;8.254;2022-08-18T13:22:41;11.43;;;10.00;;
4933;SDS011;2482;49.154;8.254;2022-08-18T13:25:10;9.63;;;8.63;;
4933;SDS011;2482;49.154;8.254;2022-08-18T13:27:58;9.40;;;8.60;;
4933;SDS011;2482;49.154;8.254;2022-08-18T13:30:27;8.70;;;7.50;;
4933;SDS011;2482;49.154;8.254;2022-08-18T13:32:57;8.30;;;7.50;;
4933;SDS011;2482;49.154;8.254;2022-08-18T13:35:31;8.43;;;7.63;;
4933;SDS011;2482;49.154;8.254;2022-08-18T13:38:10;9.17;;;8.27;;
4933;SDS011;2482;49.154;8.254;2022-08-18T13:40:47;7.43;;;6.60;;
4933;SDS011;2482;49.154;8.254;2022-08-18T13:43:16;9.00;;;8.17;;
4933;SDS011;2482;49.154;8.254;2022-08-18T13:45:48;7.53;;;6.83;;
4933;SDS011;2482;49.154;8.254;2022-08-18T13:48:21;7.20;;;6.50;;
4933;SDS011;2482;49.154;8.254;2022-08-18T13:50:49;7.53;;;6.83;;
4933;SDS011;2482;49.154;8.254;2022-08-18T13:53:21;9.43;;;7.47;;
4933;SDS011;2482;49.154;8.254;2022-08-18T13:55:52;9.80;;;8.57;;
4933;SDS011;2482;49.154;8.254;2022-08-18T13:58:24;10.63;;;9.57;;
4933;SDS011;2482;49.154;8.254;2022-08-18T14:00:58;9.37;;;8.37;;
4933;SDS011;2482;49.154;8.254;2022-08-18T14:03:49;8.73;;;7.83;;
4933;SDS011;2482;49.154;8.254;2022-08-18T14:06:17;10.13;;;9.13;;
4933;SDS011;2482;49.154;8.254;2022-08-18T14:08:49;14.00;;;9.30;;
4933;SDS011;2482;49.154;8.254;2022-08-18T14:11:18;10.83;;;9.80;;
4933;SDS011;2482;49.154;8.254;2022-08-18T14:13:53;10.20;;;9.30;;
4933;SDS011;2482;49.154;8.254;2022-08-18T14:16:24;11.13;;;8.47;;
4933;SDS011;2482;49.154;8.254;2022-08-18T14:18:52;9.30;;;8.30;;
4933;SDS011;2482;49.154;8.254;2022-08-18T14:24:31;10.47;;;9.13;;
4933;SDS011;2482;49.154;8.254;2022-08-18T14:27:22;10.13;;;8.63;;
4933;SDS011;2482;49.154;8.254;2022-08-18T14:30:05;10.57;;;8.67;;
4933;SDS011;2482;49.154;8.254;2022-08-18T14:32:36;10.07;;;9.07;;
4933;SDS011;2482;49.154;8.254;2022-08-18T14:35:16;9.47;;;8.53;;
4933;SDS011;2482;49.154;8.254;2022-08-18T14:38:04;9.60;;;8.67;;
4933;SDS011;2482;49.154;8.254;2022-08-18T14:40:35;10.77;;;8.40;;
4933;SDS011;2482;49.154;8.254;2022-08-18T14:43:09;11.00;;;9.90;;
4933;SDS011;2482;49.154;8.254;2022-08-18T14:45:41;9.80;;;8.90;;
4933;SDS011;2482;49.154;8.254;2022-08-18T14:48:17;8.80;;;7.87;;
4933;SDS011;2482;49.154;8.254;2022-08-18T14:50:53;10.10;;;9.13;;
4933;SDS011;2482;49.154;8.254;2022-08-18T14:53:23;9.23;;;8.43;;
4933;SDS011;2482;49.154;8.254;2022-08-18T14:55:56;11.57;;;8.10;;
4933;SDS011;2482;49.154;8.254;2022-08-18T14:58:25;10.17;;;9.27;;
4933;SDS011;2482;49.154;8.254;2022-08-18T15:00:55;9.40;;;8.50;;
4933;SDS011;2482;49.154;8.254;2022-08-18T15:03:34;11.23;;;9.07;;
4933;SDS011;2482;49.154;8.254;2022-08-18T15:06:03;10.30;;;9.30;;
4933;SDS011;2482;49.154;8.254;2022-08-18T15:08:33;10.20;;;9.17;;
4933;SDS011;2482;49.154;8.254;2022-08-18T15:11:03;12.10;;;10.90;;
4933;SDS011;2482;49.154;8.254;2022-08-18T15:13:38;11.37;;;10.27;;
4933;SDS011;2482;49.154;8.254;2022-08-18T15:16:11;13.10;;;11.40;;
4933;SDS011;2482;49.154;8.254;2022-08-18T15:18:41;12.17;;;10.77;;
4933;SDS011;2482;49.154;8.254;2022-08-18T15:21:10;13.53;;;11.87;;
4933;SDS011;2482;49.154;8.254;2022-08-18T15:24:04;11.63;;;10.53;;
4933;SDS011;2482;49.154;8.254;2022-08-18T15:26:52;11.10;;;10.07;;
4933;SDS011;2482;49.154;8.254;2022-08-18T15:29:24;12.57;;;11.13;;
4933;SDS011;2482;49.154;8.254;2022-08-18T15:31:54;12.87;;;11.00;;
4933;SDS011;2482;49.154;8.254;2022-08-18T15:34:31;13.90;;;11.07;;
4933;SDS011;2482;49.154;8.254;2022-08-18T15:37:12;13.50;;;10.43;;
4933;SDS011;2482;49.154;8.254;2022-08-18T15:39:45;10.40;;;9.40;;
4933;SDS011;2482;49.154;8.254;2022-08-18T15:42:21;11.20;;;10.10;;
4933;SDS011;2482;49.154;8.254;2022-08-18T15:44:49;10.13;;;8.60;;
4933;SDS011;2482;49.154;8.254;2022-08-18T15:47:19;11.07;;;9.80;;
4933;SDS011;2482;49.154;8.254;2022-08-18T15:49:50;9.60;;;8.60;;
4933;SDS011;2482;49.154;8.254;2022-08-18T15:52:20;9.43;;;8.53;;
4933;SDS011;2482;49.154;8.254;2022-08-18T15:54:51;9.83;;;8.83;;
4933;SDS011;2482;49.154;8.254;2022-08-18T15:57:27;11.93;;;9.20;;
4933;SDS011;2482;49.154;8.254;2022-08-18T16:00:16;10.20;;;9.20;;
4933;SDS011;2482;49.154;8.254;2022-08-18T16:02:51;9.90;;;8.07;;
4933;SDS011;2482;49.154;8.254;2022-08-18T16:05:29;9.77;;;8.77;;
4933;SDS011;2482;49.154;8.254;2022-08-18T16:08:02;17.10;;;8.03;;
4933;SDS011;2482;49.154;8.254;2022-08-18T16:10:32;18.40;;;9.07;;
4933;SDS011;2482;49.154;8.254;2022-08-18T16:13:03;10.27;;;9.37;;
4933;SDS011;2482;49.154;8.254;2022-08-18T16:15:33;12.07;;;10.90;;
4933;SDS011;2482;49.154;8.254;2022-08-18T16:18:05;11.23;;;10.10;;
4933;SDS011;2482;49.154;8.254;2022-08-18T16:20:34;10.40;;;9.30;;
4933;SDS011;2482;49.154;8.254;2022-08-18T16:23:02;11.63;;;10.20;;
4933;SDS011;2482;49.154;8.254;2022-08-18T16:25:30;11.37;;;8.87;;
4933;SDS011;2482;49.154;8.254;2022-08-18T16:27:58;11.77;;;10.00;;
4933;SDS011;2482;49.154;8.254;2022-08-18T16:30:26;13.73;;;11.07;;
4933;SDS011;2482;49.154;8.254;2022-08-18T16:32:56;13.27;;;10.03;;
4933;SDS011;2482;49.154;8.254;2022-08-18T16:35:28;11.77;;;10.53;;
4933;SDS011;2482;49.154;8.254;2022-08-18T16:38:01;12.37;;;10.50;;
4933;SDS011;2482;49.154;8.254;2022-08-18T16:40:31;10.90;;;9.97;;
4933;SDS011;2482;49.154;8.254;2022-08-18T16:42:59;11.00;;;9.90;;
4933;SDS011;2482;49.154;8.254;2022-08-18T16:45:26;11.03;;;9.93;;
4933;SDS011;2482;49.154;8.254;2022-08-18T16:47:54;12.57;;;11.00;;
4933;SDS011;2482;49.154;8.254;2022-08-18T16:50:22;11.03;;;10.00;;
4933;SDS011;2482;49.154;8.254;2022-08-18T16:52:50;9.83;;;9.03;;
4933;SDS011;2482;49.154;8.254;2022-08-18T16:55:18;11.83;;;10.10;;
4933;SDS011;2482;49.154;8.254;2022-08-18T16:57:46;10.67;;;9.03;;
4933;SDS011;2482;49.154;8.254;2022-08-18T17:00:31;10.30;;;9.30;;
4933;SDS011;2482;49.154;8.254;2022-08-18T17:03:21;12.07;;;9.00;;
4933;SDS011;2482;49.154;8.254;2022-08-18T17:06:10;10.70;;;9.60;;
4933;SDS011;2482;49.154;8.254;2022-08-18T17:08:41;10.23;;;9.30;;
4933;SDS011;2482;49.154;8.254;2022-08-18T17:11:10;12.57;;;9.20;;
4933;SDS011;2482;49.154;8.254;2022-08-18T17:13:42;10.20;;;9.30;;
4933;SDS011;2482;49.154;8.254;2022-08-18T17:16:13;10.50;;;9.47;;
4933;SDS011;2482;49.154;8.254;2022-08-18T17:18:41;10.60;;;9.60;;
4933;SDS011;2482;49.154;8.254;2022-08-18T17:21:10;11.03;;;9.90;;
4933;SDS011;2482;49.154;8.254;2022-08-18T17:23:41;12.10;;;10.07;;
4933;SDS011;2482;49.154;8.254;2022-08-18T17:32:07;13.67;;;10.80;;
4933;SDS011;2482;49.154;8.254;2022-08-18T17:35:17;10.97;;;9.87;;
4933;SDS011;2482;49.154;8.254;2022-08-18T17:37:59;11.43;;;10.33;;
4933;SDS011;2482;49.154;8.254;2022-08-18T17:40:34;12.00;;;10.80;;
4933;SDS011;2482;49.154;8.254;2022-08-18T17:43:29;16.70;;;12.33;;
4933;SDS011;2482;49.154;8.254;2022-08-18T17:48:54;13.77;;;12.13;;
4933;SDS011;2482;49.154;8.254;2022-08-18T17:51:41;13.03;;;11.40;;
4933;SDS011;2482;49.154;8.254;2022-08-18T17:54:19;15.00;;;13.60;;
4933;SDS011;2482;49.154;8.254;2022-08-18T17:57:27;16.47;;;14.87;;
4933;SDS011;2482;49.154;8.254;2022-08-18T18:00:05;15.37;;;13.87;;
4933;SDS011;2482;49.154;8.254;2022-08-18T18:02:37;15.10;;;13.60;;
4933;SDS011;2482;49.154;8.254;2022-08-18T18:05:08;18.10;;;15.60;;
4933;SDS011;2482;49.154;8.254;2022-08-18T18:18:39;13.80;;;12.23;;
4933;SDS011;2482;49.154;8.254;2022-08-18T18:23:41;17.60;;;12.70;;
4933;SDS011;2482;49.154;8.254;2022-08-18T18:26:26;25.40;;;12.47;;
4933;SDS011;2482;49.154;8.254;2022-08-18T18:32:04;18.50;;;13.70;;
4933;SDS011;2482;49.154;8.254;2022-08-18T18:35:09;16.40;;;12.83;;
4933;SDS011;2482;49.154;8.254;2022-08-18T18:38:02;16.47;;;14.73;;
4933;SDS011;2482;49.154;8.254;2022-08-18T18:43:20;13.00;;;11.70;;
4933;SDS011;2482;49.154;8.254;2022-08-18T18:52:09;15.30;;;13.80;;